Wetterdaten: Woche 02.10.17 - 08.10.17 (KW40)
Datum Zeit Temp. Aussen Temp. o. S. +5cm Feuchte Auss BlattFeu 1 Luftdruck Regen Sonnenschein Regendauer Solar Windben Empfang
02.10.2017 00:00 14,5 C 14,3 C 12,8 C 82 % 0 lf 1015,4 hPa 0,0 l/m 0,00 h 0,00 h 0 W/m 16,1 km/h (3 Bft) 94,12 %
02.10.2017 01:00 14,2 C 13,9 C 12,8 C 83 % 0 lf 1014,6 hPa 0,0 l/m 0,00 h 0,00 h 4 W/m 14,6 km/h (3 Bft) 97,79 %
02.10.2017 02:00 14,2 C 13,9 C 12,8 C 83 % 0 lf 1013,4 hPa 0,0 l/m 0,00 h 0,00 h 0 W/m 16,2 km/h (3 Bft) 97,65 %
02.10.2017 03:00 14,2 C 13,6 C 12,5 C 85 % 1 lf 1013,1 hPa 0,0 l/m 0,00 h 0,33 h 0 W/m 10,9 km/h (2 Bft) 94,31 %
02.10.2017 04:00 14,2 C 13,8 C 12,2 C 88 % 2 lf 1012,4 hPa 0,2 l/m 0,00 h 0,27 h 0 W/m 16,0 km/h (3 Bft) 97,15 %
02.10.2017 05:00 14,5 C 13,3 C 12,4 C 92 % 14 lf 1012,0 hPa 0,4 l/m 0,00 h 0,37 h 0 W/m 16,3 km/h (3 Bft) 97,80 %
02.10.2017 06:00 14,8 C 14,0 C 12,9 C 94 % 0 lf 1011,4 hPa 0,0 l/m 0,00 h 0,00 h 0 W/m 21,3 km/h (4 Bft) 95,61 %
02.10.2017 07:00 15,1 C 14,4 C 13,2 C 94 % 2 lf 1011,4 hPa 0,0 l/m 0,00 h 0,10 h 0 W/m 18,0 km/h (3 Bft) 95,94 %
02.10.2017 08:00 15,5 C 15,1 C 13,6 C 94 % 0 lf 1011,4 hPa 0,0 l/m 0,00 h 0,00 h 17 W/m 21,3 km/h (4 Bft) 96,69 %
02.10.2017 09:00 15,9 C 15,2 C 13,9 C 93 % 7 lf 1011,3 hPa 0,4 l/m 0,00 h 0,70 h 29 W/m 20,6 km/h (4 Bft) 96,37 %
02.10.2017 10:00 15,9 C 15,0 C 14,1 C 95 % 15 lf 1011,7 hPa 0,2 l/m 0,00 h 0,77 h 66 W/m 16,9 km/h (3 Bft) 98,01 %
02.10.2017 11:00 16,2 C 17,6 C 15,5 C 95 % 4 lf 1011,8 hPa 0,0 l/m 0,23 h 0,03 h 189 W/m 19,0 km/h (3 Bft) 93,89 %
02.10.2017 12:00 17,6 C 19,8 C 17,0 C 86 % 0 lf 1011,4 hPa 0,0 l/m 0,40 h 0,00 h 294 W/m 27,4 km/h (4 Bft) 96,80 %
02.10.2017 13:00 18,7 C 23,0 C 17,9 C 77 % 0 lf 1011,8 hPa 0,0 l/m 0,77 h 0,00 h 451 W/m 34,5 km/h (5 Bft) 98,85 %
02.10.2017 14:00 19,7 C 24,5 C 18,7 C 71 % 0 lf 1011,8 hPa 0,0 l/m 0,97 h 0,00 h 541 W/m 31,0 km/h (5 Bft) 94,77 %
02.10.2017 15:00 19,9 C 23,2 C 18,8 C 66 % 0 lf 1011,4 hPa 0,0 l/m 0,77 h 0,00 h 380 W/m 32,2 km/h (5 Bft) 96,88 %
02.10.2017 16:00 19,6 C 22,3 C 18,0 C 65 % 0 lf 1011,2 hPa 0,0 l/m 0,97 h 0,00 h 326 W/m 31,5 km/h (5 Bft) 97,22 %
02.10.2017 17:00 19,0 C 18,9 C 17,3 C 68 % 0 lf 1011,3 hPa 0,0 l/m 0,27 h 0,00 h 114 W/m 17,8 km/h (3 Bft) 94,61 %
02.10.2017 18:00 18,0 C 17,7 C 16,2 C 71 % 0 lf 1011,5 hPa 0,0 l/m 0,43 h 0,00 h 42 W/m 20,0 km/h (4 Bft) 96,25 %
02.10.2017 19:00 17,2 C 16,7 C 15,1 C 72 % 0 lf 1011,9 hPa 0,0 l/m 0,00 h 0,03 h 12 W/m 15,1 km/h (3 Bft) 98,79 %
02.10.2017 20:00 16,5 C 16,0 C 14,6 C 75 % 0 lf 1012,1 hPa 0,0 l/m 0,00 h 0,10 h 5 W/m 13,9 km/h (3 Bft) 93,88 %
02.10.2017 21:00 16,0 C 15,6 C 14,1 C 77 % 0 lf 1012,2 hPa 0,0 l/m 0,00 h 0,00 h 4 W/m 15,8 km/h (3 Bft) 97,01 %
02.10.2017 22:00 15,4 C 14,4 C 13,1 C 81 % 7 lf 1012,3 hPa 0,6 l/m 0,00 h 0,50 h 5 W/m 21,6 km/h (4 Bft) 97,30 %
02.10.2017 23:00 14,0 C 12,3 C 11,7 C 90 % 15 lf 1012,5 hPa 0,8 l/m 0,00 h 0,87 h 5 W/m 15,5 km/h (3 Bft) 96,08 %
03.10.2017 00:00 13,2 C 12,2 C 11,6 C 94 % 15 lf 1012,4 hPa 0,4 l/m 0,00 h 0,87 h 5 W/m 17,3 km/h (3 Bft) 95,21 %
03.10.2017 01:00 12,9 C 12,2 C 11,2 C 95 % 15 lf 1012,3 hPa 0,2 l/m 0,00 h 0,50 h 0 W/m 17,6 km/h (3 Bft) 97,94 %
03.10.2017 02:00 12,6 C 11,9 C 11,1 C 96 % 15 lf 1012,0 hPa 0,0 l/m 0,00 h 0,17 h 0 W/m 17,6 km/h (3 Bft) 95,01 %
03.10.2017 03:00 12,4 C 11,7 C 11,0 C 96 % 15 lf 1012,0 hPa 0,6 l/m 0,00 h 0,77 h 0 W/m 18,1 km/h (3 Bft) 98,79 %
03.10.2017 04:00 11,9 C 11,1 C 10,2 C 96 % 15 lf 1012,3 hPa 0,2 l/m 0,00 h 0,40 h 3 W/m 17,0 km/h (3 Bft) 96,08 %
03.10.2017 05:00 11,5 C 10,7 C 9,9 C 96 % 15 lf 1012,5 hPa 0,0 l/m 0,00 h 0,13 h 4 W/m 15,9 km/h (3 Bft) 95,36 %
03.10.2017 06:00 11,5 C 10,8 C 10,0 C 97 % 15 lf 1013,0 hPa 0,0 l/m 0,00 h 0,07 h 0 W/m 19,4 km/h (3 Bft) 98,40 %
03.10.2017 07:00 11,2 C 10,6 C 9,8 C 97 % 15 lf 1013,6 hPa 0,0 l/m 0,00 h 0,03 h 9 W/m 16,7 km/h (3 Bft) 96,43 %
03.10.2017 08:00 11,1 C 11,0 C 10,1 C 97 % 15 lf 1014,5 hPa 0,0 l/m 0,20 h 0,03 h 55 W/m 17,5 km/h (3 Bft) 94,37 %
03.10.2017 09:00 11,8 C 16,0 C 11,4 C 97 % 5 lf 1015,5 hPa 0,2 l/m 0,90 h 0,00 h 212 W/m 18,7 km/h (3 Bft) 98,19 %
03.10.2017 10:00 13,4 C 19,2 C 13,8 C 93 % 0 lf 1016,4 hPa 0,0 l/m 0,87 h 0,00 h 355 W/m 22,9 km/h (4 Bft) 96,07 %
03.10.2017 11:00 14,7 C 19,4 C 16,2 C 86 % 0 lf 1017,2 hPa 0,0 l/m 0,57 h 0,00 h 307 W/m 22,4 km/h (4 Bft) 96,72 %
03.10.2017 12:00 16,1 C 22,0 C 18,0 C 78 % 0 lf 1018,0 hPa 0,0 l/m 0,67 h 0,00 h 447 W/m 25,4 km/h (4 Bft) 96,65 %
03.10.2017 13:00 16,7 C 23,2 C 16,1 C 72 % 0 lf 1018,7 hPa 0,0 l/m 0,83 h 0,00 h 538 W/m 26,4 km/h (4 Bft) 95,73 %
03.10.2017 14:00 17,6 C 21,1 C 17,7 C 67 % 0 lf 1019,0 hPa 0,0 l/m 1,00 h 0,00 h 645 W/m 25,3 km/h (4 Bft) 95,38 %
03.10.2017 15:00 16,4 C 17,1 C 15,5 C 69 % 0 lf 1019,5 hPa 0,0 l/m 1,00 h 0,03 h 557 W/m 25,7 km/h (4 Bft) 97,86 %
03.10.2017 16:00 15,2 C 16,6 C 14,2 C 76 % 1 lf 1020,2 hPa 0,0 l/m 1,00 h 0,13 h 400 W/m 20,1 km/h (4 Bft) 96,80 %
03.10.2017 17:00 14,9 C 15,4 C 14,3 C 79 % 0 lf 1020,7 hPa 0,0 l/m 0,07 h 0,00 h 50 W/m 16,7 km/h (3 Bft) 94,37 %
03.10.2017 18:00 14,6 C 13,7 C 12,3 C 79 % 0 lf 1021,1 hPa 0,0 l/m 0,33 h 0,00 h 36 W/m 10,3 km/h (2 Bft) 97,22 %
03.10.2017 19:00 13,3 C 11,4 C 10,2 C 83 % 0 lf 1021,7 hPa 0,0 l/m 0,00 h 0,00 h 32 W/m 7,5 km/h (2 Bft) 96,93 %
03.10.2017 20:00 12,3 C 11,6 C 10,4 C 83 % 0 lf 1022,4 hPa 0,0 l/m 0,00 h 0,00 h 4 W/m 11,2 km/h (2 Bft) 96,93 %
03.10.2017 21:00 11,8 C 10,8 C 9,5 C 84 % 0 lf 1022,9 hPa 0,0 l/m 0,00 h 0,00 h 5 W/m 10,2 km/h (2 Bft) 94,87 %
03.10.2017 22:00 11,2 C 10,3 C 9,2 C 86 % 0 lf 1023,0 hPa 0,0 l/m 0,00 h 0,00 h 5 W/m 8,9 km/h (2 Bft) 96,35 %
03.10.2017 23:00 10,8 C 10,5 C 9,3 C 88 % 0 lf 1023,0 hPa 0,0 l/m 0,00 h 0,00 h 0 W/m 12,2 km/h (2 Bft) 98,36 %
04.10.2017 00:00 10,8 C 10,6 C 9,4 C 89 % 0 lf 1023,2 hPa 0,0 l/m 0,00 h 0,00 h 5 W/m 13,3 km/h (3 Bft) 95,85 %
04.10.2017 01:00 11,0 C 10,8 C 9,7 C 89 % 0 lf 1023,1 hPa 0,0 l/m 0,00 h 0,00 h 5 W/m 16,2 km/h (3 Bft) 94,66 %
04.10.2017 02:00 10,9 C 10,3 C 9,1 C 88 % 0 lf 1022,9 hPa 0,0 l/m 0,00 h 0,00 h 5 W/m 12,9 km/h (3 Bft) 97,36 %
04.10.2017 03:00 10,5 C 10,4 C 9,3 C 90 % 0 lf 1022,5 hPa 0,0 l/m 0,00 h 0,00 h 5 W/m 13,3 km/h (3 Bft) 97,37 %
04.10.2017 04:00 10,6 C 10,6 C 9,4 C 90 % 0 lf 1022,2 hPa 0,0 l/m 0,00 h 0,00 h 0 W/m 13,4 km/h (3 Bft) 95,59 %
04.10.2017 05:00 10,5 C 10,1 C 9,4 C 90 % 0 lf 1022,0 hPa 0,0 l/m 0,00 h 0,00 h 0 W/m 14,8 km/h (3 Bft) 97,44 %
04.10.2017 06:00 10,4 C 10,0 C 9,2 C 91 % 0 lf 1021,6 hPa 0,0 l/m 0,00 h 0,00 h 0 W/m 15,3 km/h (3 Bft) 95,18 %
04.10.2017 07:00 10,2 C 10,0 C 8,9 C 91 % 0 lf 1021,5 hPa 0,0 l/m 0,13 h 0,00 h 17 W/m 15,5 km/h (3 Bft) 98,14 %
04.10.2017 08:00 10,2 C 10,5 C 9,3 C 92 % 0 lf 1021,4 hPa 0,0 l/m 0,80 h 0,00 h 67 W/m 16,2 km/h (3 Bft) 96,97 %
04.10.2017 09:00 10,7 C 11,6 C 10,7 C 91 % 0 lf 1021,2 hPa 0,0 l/m 0,17 h 0,00 h 121 W/m 17,6 km/h (3 Bft) 94,32 %
04.10.2017 10:00 11,9 C 13,7 C 12,5 C 87 % 0 lf 1021,2 hPa 0,0 l/m 0,57 h 0,00 h 209 W/m 18,4 km/h (3 Bft) 96,74 %
04.10.2017 11:00 13,4 C 17,2 C 14,8 C 82 % 0 lf 1021,1 hPa 0,0 l/m 1,00 h 0,00 h 445 W/m 21,3 km/h (4 Bft) 98,35 %
04.10.2017 12:00 14,1 C 16,1 C 14,6 C 77 % 0 lf 1020,9 hPa 0,0 l/m 0,97 h 0,00 h 500 W/m 29,3 km/h (5 Bft) 93,58 %
04.10.2017 13:00 14,6 C 17,0 C 15,0 C 74 % 0 lf 1020,4 hPa 0,0 l/m 0,03 h 0,00 h 226 W/m 30,3 km/h (5 Bft) 98,23 %
04.10.2017 14:00 14,7 C 16,3 C 15,3 C 70 % 0 lf 1020,1 hPa 0,0 l/m 0,00 h 0,00 h 210 W/m 30,8 km/h (5 Bft) 96,74 %
04.10.2017 15:00 14,6 C 15,7 C 14,9 C 71 % 0 lf 1019,7 hPa 0,0 l/m 0,00 h 0,00 h 197 W/m 27,0 km/h (4 Bft) 95,61 %
04.10.2017 16:00 14,2 C 14,4 C 13,6 C 72 % 0 lf 1019,6 hPa 0,0 l/m 0,23 h 0,00 h 172 W/m 23,1 km/h (4 Bft) 96,73 %
04.10.2017 17:00 13,8 C 13,9 C 12,8 C 73 % 0 lf 1019,2 hPa 0,0 l/m 0,03 h 0,00 h 52 W/m 22,3 km/h (4 Bft) 97,02 %
04.10.2017 18:00 13,5 C 13,3 C 12,2 C 76 % 0 lf 1018,9 hPa 0,0 l/m 0,00 h 0,00 h 23 W/m 16,5 km/h (3 Bft) 95,81 %
04.10.2017 19:00 13,1 C 12,5 C 11,6 C 79 % 0 lf 1018,4 hPa 0,0 l/m 0,00 h 0,00 h 6 W/m 13,3 km/h (3 Bft) 96,48 %
04.10.2017 20:00 12,8 C 12,4 C 11,4 C 81 % 0 lf 1018,2 hPa 0,0 l/m 0,00 h 0,00 h 5 W/m 13,9 km/h (3 Bft) 96,15 %
04.10.2017 21:00 12,9 C 12,8 C 11,7 C 80 % 0 lf 1018,1 hPa 0,0 l/m 0,00 h 0,00 h 5 W/m 20,4 km/h (4 Bft) 97,50 %
04.10.2017 22:00 13,1 C 12,8 C 11,7 C 80 % 0 lf 1017,8 hPa 0,0 l/m 0,00 h 0,00 h 5 W/m 23,8 km/h (4 Bft) 95,37 %
04.10.2017 23:00 13,2 C 12,8 C 11,7 C 80 % 0 lf 1017,3 hPa 0,0 l/m 0,00 h 0,00 h 0 W/m 24,1 km/h (4 Bft) 96,99 %
05.10.2017 00:00 12,9 C 12,5 C 11,1 C 82 % 5 lf 1016,7 hPa 0,0 l/m 0,00 h 0,40 h 5 W/m 24,7 km/h (4 Bft) 96,42 %
05.10.2017 01:00 12,5 C 12,0 C 10,6 C 85 % 5 lf 1015,6 hPa 0,0 l/m 0,00 h 0,27 h 5 W/m 21,2 km/h (4 Bft) 98,30 %
05.10.2017 02:00 12,6 C 12,4 C 11,0 C 84 % 3 lf 1014,4 hPa 0,0 l/m 0,00 h 0,37 h 5 W/m 25,7 km/h (4 Bft) 94,41 %
05.10.2017 03:00 12,7 C 12,3 C 10,9 C 85 % 3 lf 1012,8 hPa 0,0 l/m 0,00 h 0,10 h 5 W/m 25,3 km/h (4 Bft) 97,14 %
05.10.2017 04:00 12,8 C 12,8 C 11,7 C 85 % 0 lf 1010,9 hPa 0,0 l/m 0,00 h 0,00 h 5 W/m 34,3 km/h (5 Bft) 96,68 %
05.10.2017 05:00 12,8 C 12,8 C 11,7 C 85 % 0 lf 1009,4 hPa 0,0 l/m 0,00 h 0,00 h 5 W/m 37,8 km/h (5 Bft) 96,90 %
05.10.2017 06:00 12,5 C 11,6 C 10,7 C 88 % 10 lf 1008,7 hPa 0,2 l/m 0,00 h 0,57 h 5 W/m 36,6 km/h (5 Bft) 94,94 %
05.10.2017 07:00 11,7 C 10,7 C 10,0 C 93 % 15 lf 1007,5 hPa 1,2 l/m 0,00 h 0,63 h 5 W/m 35,8 km/h (5 Bft) 97,81 %
05.10.2017 08:00 11,8 C 11,2 C 10,2 C 95 % 15 lf 1006,5 hPa 0,2 l/m 0,00 h 0,47 h 11 W/m 37,7 km/h (5 Bft) 96,19 %
05.10.2017 09:00 12,6 C 12,0 C 11,1 C 95 % 15 lf 1006,2 hPa 0,2 l/m 0,00 h 0,63 h 33 W/m 38,6 km/h (5 Bft) 97,46 %
05.10.2017 10:00 13,1 C 12,6 C 11,9 C 96 % 15 lf 1005,9 hPa 0,2 l/m 0,00 h 0,17 h 66 W/m 43,4 km/h (6 Bft) 94,33 %
05.10.2017 11:00 13,8 C 13,7 C 12,8 C 97 % 15 lf 1005,9 hPa 0,0 l/m 0,03 h 0,63 h 135 W/m 43,2 km/h (6 Bft) 96,92 %
05.10.2017 12:00 14,1 C 14,0 C 13,4 C 96 % 15 lf 1007,4 hPa 1,8 l/m 0,03 h 0,33 h 181 W/m 41,5 km/h (6 Bft) 97,64 %
05.10.2017 13:00 15,0 C 18,8 C 13,9 C 84 % 1 lf 1008,9 hPa 0,0 l/m 0,80 h 0,00 h 455 W/m 41,8 km/h (6 Bft) 95,41 %
05.10.2017 14:00 15,9 C 20,1 C 14,7 C 75 % 0 lf 1010,1 hPa 0,0 l/m 0,77 h 0,00 h 444 W/m 40,2 km/h (6 Bft) 95,31 %
05.10.2017 15:00 14,3 C 16,3 C 11,7 C 82 % 12 lf 1011,2 hPa 0,4 l/m 0,50 h 0,33 h 254 W/m 30,5 km/h (5 Bft) 97,69 %
05.10.2017 16:00 13,6 C 15,0 C 10,9 C 79 % 0 lf 1012,1 hPa 0,0 l/m 0,40 h 0,07 h 178 W/m 28,3 km/h (4 Bft) 94,89 %
05.10.2017 17:00 13,9 C 14,0 C 11,3 C 80 % 0 lf 1012,8 hPa 0,0 l/m 0,53 h 0,00 h 121 W/m 26,8 km/h (4 Bft) 97,35 %
05.10.2017 18:00 13,1 C 12,7 C 10,5 C 81 % 6 lf 1013,6 hPa 0,0 l/m 0,43 h 0,20 h 37 W/m 21,8 km/h (4 Bft) 95,61 %
05.10.2017 19:00 12,3 C 11,6 C 9,7 C 83 % 0 lf 1014,3 hPa 0,0 l/m 0,00 h 0,00 h 7 W/m 22,5 km/h (4 Bft) 96,27 %
05.10.2017 20:00 11,5 C 10,7 C 9,2 C 85 % 0 lf 1015,0 hPa 0,0 l/m 0,00 h 0,00 h 4 W/m 15,1 km/h (3 Bft) 96,40 %
05.10.2017 21:00 10,9 C 10,2 C 8,9 C 87 % 0 lf 1015,5 hPa 0,0 l/m 0,00 h 0,00 h 4 W/m 16,1 km/h (3 Bft) 96,53 %
05.10.2017 22:00 10,4 C 9,8 C 8,6 C 88 % 0 lf 1015,8 hPa 0,0 l/m 0,00 h 0,00 h 5 W/m 15,5 km/h (3 Bft) 97,79 %
05.10.2017 23:00 10,1 C 9,2 C 8,0 C 88 % 0 lf 1015,8 hPa 0,0 l/m 0,00 h 0,00 h 5 W/m 15,1 km/h (3 Bft) 95,98 %
06.10.2017 00:00 9,3 C 8,6 C 7,5 C 89 % 0 lf 1015,9 hPa 0,0 l/m 0,00 h 0,00 h 4 W/m 15,3 km/h (3 Bft) 95,25 %
06.10.2017 01:00 9,2 C 8,7 C 7,6 C 91 % 0 lf 1015,8 hPa 0,0 l/m 0,00 h 0,00 h 0 W/m 15,4 km/h (3 Bft) 98,06 %
06.10.2017 02:00 8,8 C 8,2 C 7,1 C 91 % 0 lf 1015,8 hPa 0,0 l/m 0,00 h 0,00 h 4 W/m 18,4 km/h (3 Bft) 96,65 %
06.10.2017 03:00 8,5 C 7,8 C 6,7 C 92 % 0 lf 1015,6 hPa 0,0 l/m 0,00 h 0,00 h 5 W/m 14,0 km/h (3 Bft) 95,21 %
06.10.2017 04:00 8,5 C 8,2 C 7,2 C 93 % 0 lf 1015,6 hPa 0,0 l/m 0,00 h 0,00 h 5 W/m 14,6 km/h (3 Bft) 95,35 %
06.10.2017 05:00 8,5 C 8,4 C 7,5 C 93 % 0 lf 1015,6 hPa 0,0 l/m 0,00 h 0,00 h 5 W/m 14,9 km/h (3 Bft) 85,45 %
06.10.2017 06:00 9,1 C 8,9 C 7,8 C 93 % 11 lf 1015,7 hPa 0,2 l/m 0,00 h 0,27 h 5 W/m 16,7 km/h (3 Bft) 95,25 %
06.10.2017 07:00 9,2 C 8,6 C 7,5 C 93 % 1 lf 1015,7 hPa 0,0 l/m 0,07 h 0,00 h 26 W/m 17,3 km/h (3 Bft) 95,94 %
06.10.2017 08:00 8,9 C 9,0 C 7,6 C 94 % 0 lf 1016,0 hPa 0,0 l/m 0,57 h 0,00 h 62 W/m 16,6 km/h (3 Bft) 97,24 %
06.10.2017 09:00 9,7 C 11,3 C 9,5 C 95 % 0 lf 1016,6 hPa 0,0 l/m 0,33 h 0,03 h 120 W/m 20,8 km/h (4 Bft) 96,51 %
06.10.2017 10:00 11,1 C 14,2 C 11,4 C 91 % 3 lf 1017,2 hPa 0,0 l/m 0,43 h 0,17 h 190 W/m 21,9 km/h (4 Bft) 96,37 %
06.10.2017 11:00 11,2 C 10,6 C 9,7 C 91 % 15 lf 1018,0 hPa 1,2 l/m 0,00 h 0,87 h 126 W/m 17,4 km/h (3 Bft) 97,01 %
06.10.2017 12:00 12,0 C 15,4 C 12,4 C 93 % 13 lf 1018,4 hPa 0,0 l/m 0,77 h 0,00 h 360 W/m 20,4 km/h (4 Bft) 95,38 %
06.10.2017 13:00 13,0 C 14,4 C 11,5 C 87 % 6 lf 1018,7 hPa 1,6 l/m 0,20 h 0,47 h 180 W/m 22,7 km/h (4 Bft) 97,70 %
06.10.2017 14:00 11,8 C 12,7 C 10,3 C 90 % 15 lf 1019,0 hPa 1,2 l/m 0,33 h 0,47 h 252 W/m 19,9 km/h (4 Bft) 95,30 %
06.10.2017 15:00 13,6 C 18,5 C 11,8 C 88 % 3 lf 1019,1 hPa 0,0 l/m 0,73 h 0,00 h 339 W/m 26,3 km/h (4 Bft) 97,21 %
06.10.2017 16:00 14,7 C 17,4 C 11,6 C 81 % 0 lf 1019,5 hPa 0,0 l/m 0,93 h 0,07 h 353 W/m 21,3 km/h (4 Bft) 97,68 %
06.10.2017 17:00 13,3 C 12,9 C 10,2 C 84 % 0 lf 1020,0 hPa 0,0 l/m 0,60 h 0,00 h 148 W/m 19,9 km/h (4 Bft) 95,07 %
06.10.2017 18:00 12,2 C 11,5 C 9,4 C 87 % 0 lf 1020,5 hPa 0,0 l/m 0,83 h 0,00 h 70 W/m 15,7 km/h (3 Bft) 97,54 %
06.10.2017 19:00 11,4 C 10,4 C 8,8 C 89 % 0 lf 1021,2 hPa 0,0 l/m 0,00 h 0,00 h 6 W/m 14,6 km/h (3 Bft) 97,19 %
06.10.2017 20:00 10,6 C 9,8 C 8,1 C 91 % 0 lf 1021,8 hPa 0,0 l/m 0,00 h 0,00 h 4 W/m 14,1 km/h (3 Bft) 96,83 %
06.10.2017 21:00 10,0 C 9,4 C 7,9 C 92 % 0 lf 1022,3 hPa 0,0 l/m 0,00 h 0,00 h 4 W/m 13,8 km/h (3 Bft) 94,46 %
06.10.2017 22:00 10,0 C 9,5 C 8,3 C 93 % 0 lf 1022,5 hPa 0,0 l/m 0,00 h 0,00 h 0 W/m 11,0 km/h (2 Bft) 97,36 %
06.10.2017 23:00 9,6 C 9,0 C 7,9 C 94 % 0 lf 1023,0 hPa 0,0 l/m 0,00 h 0,00 h 2 W/m 12,2 km/h (2 Bft) 96,66 %
07.10.2017 00:00 9,7 C 9,7 C 8,9 C 94 % 0 lf 1023,1 hPa 0,0 l/m 0,00 h 0,00 h 5 W/m 11,6 km/h (2 Bft) 94,91 %
07.10.2017 01:00 9,9 C 9,8 C 8,8 C 94 % 0 lf 1023,0 hPa 0,0 l/m 0,00 h 0,00 h 5 W/m 13,9 km/h (3 Bft) 96,88 %
07.10.2017 02:00 10,0 C 9,8 C 8,6 C 94 % 7 lf 1022,8 hPa 0,0 l/m 0,00 h 0,10 h 5 W/m 11,0 km/h (2 Bft) 95,62 %
07.10.2017 03:00 9,8 C 9,4 C 8,1 C 94 % 0 lf 1022,1 hPa 0,0 l/m 0,00 h 0,00 h 5 W/m 9,7 km/h (2 Bft) 97,94 %
07.10.2017 04:00 9,7 C 9,4 C 8,3 C 94 % 0 lf 1021,7 hPa 0,0 l/m 0,00 h 0,00 h 5 W/m 14,1 km/h (3 Bft) 98,05 %
07.10.2017 05:00 9,5 C 9,3 C 8,1 C 92 % 0 lf 1021,2 hPa 0,0 l/m 0,00 h 0,00 h 5 W/m 13,1 km/h (3 Bft) 94,08 %
07.10.2017 06:00 9,3 C 9,3 C 8,1 C 90 % 0 lf 1020,9 hPa 0,0 l/m 0,00 h 0,00 h 5 W/m 15,2 km/h (3 Bft) 97,07 %
07.10.2017 07:00 9,4 C 9,4 C 8,3 C 88 % 0 lf 1020,7 hPa 0,0 l/m 0,00 h 0,00 h 5 W/m 15,9 km/h (3 Bft) 96,28 %
07.10.2017 08:00 9,4 C 9,5 C 8,4 C 86 % 0 lf 1019,9 hPa 0,0 l/m 0,17 h 0,00 h 42 W/m 16,2 km/h (3 Bft) 91,36 %
07.10.2017 09:00 10,1 C 10,8 C 9,7 C 84 % 0 lf 1019,3 hPa 0,0 l/m 0,00 h 0,00 h 72 W/m 21,7 km/h (4 Bft) 93,12 %
07.10.2017 10:00 10,7 C 11,1 C 10,2 C 83 % 0 lf 1018,8 hPa 0,0 l/m 0,00 h 0,10 h 88 W/m 27,7 km/h (4 Bft) 95,37 %
07.10.2017 11:00 11,3 C 12,0 C 11,1 C 81 % 0 lf 1018,0 hPa 0,0 l/m 0,00 h 0,10 h 146 W/m 34,0 km/h (5 Bft) 92,13 %
07.10.2017 12:00 11,3 C 11,3 C 10,1 C 84 % 11 lf 1017,2 hPa 0,0 l/m 0,00 h 0,77 h 95 W/m 35,8 km/h (5 Bft) 93,93 %
07.10.2017 13:00 10,6 C 10,2 C 9,0 C 91 % 15 lf 1016,4 hPa 0,2 l/m 0,00 h 0,93 h 70 W/m 32,8 km/h (5 Bft) 94,38 %
07.10.2017 14:00 10,7 C 11,1 C 9,7 C 93 % 12 lf 1015,4 hPa 0,0 l/m 0,00 h 0,73 h 152 W/m 35,9 km/h (5 Bft) 93,66 %
07.10.2017 15:00 10,8 C 10,9 C 9,8 C 92 % 3 lf 1014,5 hPa 0,0 l/m 0,00 h 0,13 h 85 W/m 36,7 km/h (5 Bft) 98,22 %
07.10.2017 16:00 10,6 C 10,0 C 9,1 C 94 % 15 lf 1013,7 hPa 0,2 l/m 0,00 h 0,90 h 31 W/m 32,7 km/h (5 Bft) 95,23 %
07.10.2017 17:00 10,5 C 10,0 C 8,9 C 95 % 15 lf 1012,9 hPa 0,0 l/m 0,00 h 0,40 h 17 W/m 31,3 km/h (5 Bft) 95,38 %
07.10.2017 18:00 10,6 C 10,0 C 8,9 C 96 % 15 lf 1012,4 hPa 0,0 l/m 0,00 h 0,33 h 8 W/m 31,9 km/h (5 Bft) 98,24 %
07.10.2017 19:00 10,7 C 10,4 C 9,3 C 96 % 10 lf 1012,0 hPa 0,0 l/m 0,00 h 0,43 h 0 W/m 31,1 km/h (5 Bft) 96,15 %
07.10.2017 20:00 10,7 C 10,0 C 8,9 C 95 % 15 lf 1011,4 hPa 1,8 l/m 0,00 h 1,00 h 0 W/m 32,1 km/h (5 Bft) 94,66 %
07.10.2017 21:00 10,5 C 9,9 C 8,9 C 96 % 15 lf 1011,2 hPa 0,6 l/m 0,00 h 0,60 h 0 W/m 30,5 km/h (5 Bft) 97,58 %
07.10.2017 22:00 10,3 C 9,7 C 8,9 C 97 % 15 lf 1011,1 hPa 1,0 l/m 0,00 h 1,00 h 0 W/m 26,8 km/h (4 Bft) 96,37 %
07.10.2017 23:00 10,4 C 10,0 C 9,1 C 97 % 15 lf 1011,2 hPa 1,2 l/m 0,00 h 1,00 h 0 W/m 23,5 km/h (4 Bft) 96,51 %
08.10.2017 00:00 10,7 C 10,2 C 9,4 C 98 % 15 lf 1011,1 hPa 0,2 l/m 0,00 h 0,50 h 0 W/m 20,7 km/h (4 Bft) 97,14 %
08.10.2017 01:00 10,9 C 10,6 C 9,6 C 98 % 15 lf 1011,2 hPa 0,2 l/m 0,00 h 0,40 h 0 W/m 18,7 km/h (3 Bft) 94,80 %
08.10.2017 02:00 11,4 C 11,1 C 10,1 C 98 % 15 lf 1011,7 hPa 0,6 l/m 0,00 h 0,53 h 0 W/m 11,7 km/h (2 Bft) 98,50 %
08.10.2017 03:00 11,7 C 11,2 C 10,1 C 99 % 15 lf 1011,9 hPa 0,0 l/m 0,00 h 0,00 h 0 W/m 12,6 km/h (3 Bft) 96,80 %
08.10.2017 04:00 11,6 C 11,2 C 10,1 C 99 % 15 lf 1012,2 hPa 0,0 l/m 0,00 h 0,00 h 0 W/m 14,8 km/h (3 Bft) 94,05 %
08.10.2017 05:00 11,7 C 11,3 C 10,4 C 99 % 15 lf 1012,6 hPa 0,2 l/m 0,00 h 0,00 h 0 W/m 14,8 km/h (3 Bft) 97,65 %
08.10.2017 06:00 11,7 C 11,5 C 10,4 C 99 % 15 lf 1013,0 hPa 0,0 l/m 0,00 h 0,00 h 0 W/m 15,2 km/h (3 Bft) 98,94 %
08.10.2017 07:00 11,7 C 11,1 C 10,1 C 99 % 15 lf 1013,4 hPa 0,0 l/m 0,00 h 0,03 h 6 W/m 16,3 km/h (3 Bft) 93,52 %
08.10.2017 08:00 11,8 C 11,7 C 10,6 C 99 % 15 lf 1014,1 hPa 0,2 l/m 0,00 h 0,33 h 16 W/m 15,3 km/h (3 Bft) 98,01 %
08.10.2017 09:00 12,1 C 12,4 C 11,3 C 99 % 15 lf 1014,6 hPa 0,0 l/m 0,27 h 0,00 h 90 W/m 17,2 km/h (3 Bft) 96,51 %
08.10.2017 10:00 12,6 C 14,3 C 12,4 C 99 % 14 lf 1015,1 hPa 0,0 l/m 0,23 h 0,00 h 160 W/m 17,2 km/h (3 Bft) 95,78 %
08.10.2017 11:00 13,4 C 16,7 C 13,4 C 99 % 1 lf 1015,8 hPa 0,2 l/m 0,30 h 0,00 h 231 W/m 16,9 km/h (3 Bft) 96,16 %
08.10.2017 12:00 14,1 C 16,6 C 14,5 C 93 % 0 lf 1016,2 hPa 0,0 l/m 0,03 h 0,00 h 208 W/m 13,5 km/h (3 Bft) 97,01 %
08.10.2017 13:00 14,8 C 17,1 C 15,6 C 88 % 0 lf 1016,4 hPa 0,0 l/m 0,17 h 0,00 h 231 W/m 12,2 km/h (2 Bft) 96,58 %
08.10.2017 14:00 13,7 C 13,6 C 12,5 C 85 % 0 lf 1016,7 hPa 0,0 l/m 0,00 h 0,00 h 67 W/m 17,1 km/h (3 Bft) 97,67 %
08.10.2017 15:00 13,5 C 16,6 C 14,0 C 85 % 0 lf 1016,9 hPa 0,0 l/m 0,60 h 0,00 h 236 W/m 11,7 km/h (2 Bft) 95,34 %
08.10.2017 16:00 14,0 C 14,2 C 13,1 C 85 % 0 lf 1017,0 hPa 0,0 l/m 0,00 h 0,00 h 75 W/m 8,1 km/h (2 Bft) 97,87 %
08.10.2017 17:00 13,4 C 13,4 C 12,3 C 85 % 0 lf 1017,4 hPa 0,0 l/m 0,10 h 0,00 h 64 W/m 8,2 km/h (2 Bft) 73,64 %
08.10.2017 18:00 13,1 C 12,4 C 11,1 C 85 % 0 lf 1017,8 hPa 0,0 l/m 0,77 h 0,00 h 41 W/m 4,9 km/h (1 Bft) 95,44 %
08.10.2017 19:00 12,4 C 11,2 C 10,1 C 86 % 0 lf 1018,5 hPa 0,0 l/m 0,00 h 0,00 h 7 W/m 3,7 km/h (1 Bft) 96,73 %
08.10.2017 20:00 11,7 C 10,2 C 9,0 C 88 % 0 lf 1018,9 hPa 0,0 l/m 0,00 h 0,00 h 5 W/m 2,9 km/h (1 Bft) 98,22 %
08.10.2017 21:00 10,4 C 8,2 C 7,2 C 89 % 3 lf 1019,3 hPa 0,0 l/m 0,00 h 0,00 h 4 W/m 3,5 km/h (1 Bft) 93,54 %
08.10.2017 22:00 9,4 C 8,0 C 7,2 C 91 % 12 lf 1019,6 hPa 0,0 l/m 0,00 h 0,00 h 2 W/m 4,8 km/h (1 Bft) 98,15 %
08.10.2017 23:00 9,5 C 9,3 C 8,8 C 93 % 14 lf 1019,8 hPa 0,0 l/m 0,00 h 0,00 h 0 W/m 2,2 km/h (1 Bft) 97,36 %
Min-Datum _ 06.10.17 08.10.17 06.10.17 02.10.17 02.10.17 05.10.17 - - - - 08.10.17 06.10.17
_ Min-Zeit 03:52 22:06 02:44 16:34 00:00 11:14 - - - - 20:32 05:42
Minimum _ 8,3 C 7,2 C 6,7 C 63 % 0 lf 1005,7 hPa - - - - 0,0 km/h (0 Bft) 4,76 %
Max-Datum _ 02.10.17 02.10.17 03.10.17 08.10.17 02.10.17 04.10.17 07.10.17 06.10.17 05.10.17 03.10.17 05.10.17 02.10.17
_ Max-Zeit 15:26 14:22 12:06 02:32 05:00 00:30 20:00 15:15 12:10 13:52 12:14 01:28
Maximum _ 20,2 C 26,7 C 20,6 C 99 % 15 lf 1023,4 hPa 1,8 l/m 0,08 h 0,07 h 781 W/m 71,1 km/h
W-NW (8 Bft)
100,00 %
Durchschnitt _ 12,5 C 12,8 C 11,2 C 88 % 5 lf 1016,0 hPa #19,2 l/m #28:06 h #25:06 h 109 W/m 20,1 km/h (4 Bft) 96,13 %
© 2017 W. Hausmann